Time;durP1;ratioP1;P1;durP2;ratioP2;P2;SDS_P1;SDS_P2;PMS_P1;PMS_P2;Temp;Humidity;BMP_temperature;BMP_pressure;BME280_temperature;BME280_humidity;BME280_pressure;Samples;Min_cycle;Max_cycle;Signal;HPM_P1;HPM_P2
2022/12/27 00:01:35;;;;;;;2.63;0.97;;;;;;;8.88;67.25;100588.72;6080628;23;20191;-86
2022/12/27 00:04:01;;;;;;;1.33;1.20;;;;;;;8.85;67.56;100583.63;6090271;23;20179;-86
2022/12/27 00:06:27;;;;;;;1.30;1.00;;;;;;;8.82;67.38;100581.13;6091436;23;20189;-86
2022/12/27 00:08:54;;;;;;;1.05;0.85;;;;;;;8.79;67.58;100586.50;6095054;23;20207;-86
2022/12/27 00:11:22;;;;;;;4.13;1.33;;;;;;;8.74;67.59;100580.59;6112088;23;20156;-86
2022/12/27 00:13:48;;;;;;;1.55;1.02;;;;;;;8.70;67.57;100581.63;6088131;23;20161;-85
2022/12/27 00:16:17;;;;;;;2.08;1.20;;;;;;;8.63;67.67;100581.00;6110839;23;20153;-86
2022/12/27 00:18:44;;;;;;;1.55;1.05;;;;;;;8.58;67.80;100586.44;6105231;23;20350;-86
2022/12/27 00:21:11;;;;;;;2.50;1.60;;;;;;;8.52;67.94;100589.28;6090273;23;20236;-86
2022/12/27 00:23:40;;;;;;;1.30;0.95;;;;;;;8.47;68.27;100587.78;6090694;23;20161;-86
2022/12/27 00:26:10;;;;;;;3.00;1.05;;;;;;;8.39;68.40;100583.69;6064083;23;20548;-86
2022/12/27 00:28:36;;;;;;;1.30;1.10;;;;;;;8.35;68.41;100579.47;6088602;23;20160;-86
2022/12/27 00:31:04;;;;;;;5.93;1.40;;;;;;;8.30;68.20;100580.56;6066853;23;20165;-87
2022/12/27 00:33:31;;;;;;;1.85;1.20;;;;;;;8.25;68.24;100585.09;6091183;23;20157;-87
2022/12/27 00:35:59;;;;;;;1.00;0.90;;;;;;;8.20;68.07;100580.88;6063675;23;20149;-86
2022/12/27 00:38:24;;;;;;;4.72;1.30;;;;;;;8.15;68.07;100585.44;6066069;23;20180;-86
2022/12/27 00:40:49;;;;;;;1.67;1.10;;;;;;;8.12;68.00;100589.94;6091976;23;20240;-87
2022/12/27 00:43:15;;;;;;;1.60;1.10;;;;;;;8.09;67.79;100593.53;6089640;23;20186;-86
2022/12/27 00:45:41;;;;;;;2.23;1.40;;;;;;;8.05;67.01;100591.97;6089353;23;20514;-86
2022/12/27 00:48:07;;;;;;;2.53;1.17;;;;;;;7.99;66.96;100602.63;6091848;23;20197;-86
2022/12/27 00:50:32;;;;;;;3.93;1.37;;;;;;;7.93;67.37;100597.63;6089480;23;20232;-86
2022/12/27 00:52:58;;;;;;;1.80;0.90;;;;;;;7.91;67.37;100597.69;6090622;23;20168;-85
2022/12/27 00:55:23;;;;;;;1.97;1.10;;;;;;;7.89;67.60;100596.91;6114254;23;20195;-86
2022/12/27 00:57:48;;;;;;;1.60;1.10;;;;;;;7.87;67.64;100610.94;6118475;23;20188;-86
2022/12/27 01:00:14;;;;;;;1.37;1.13;;;;;;;7.84;67.74;100611.91;6120038;23;20168;-85
2022/12/27 01:02:40;;;;;;;2.63;1.50;;;;;;;7.82;67.71;100615.47;6120890;23;20170;-85
2022/12/27 01:05:05;;;;;;;3.73;1.40;;;;;;;7.82;68.00;100608.47;6091463;23;20491;-85
2022/12/27 01:07:31;;;;;;;1.10;1.00;;;;;;;7.81;68.09;100613.78;6120250;23;20400;-85
2022/12/27 01:09:56;;;;;;;3.03;2.43;;;;;;;7.75;68.09;100607.88;6119097;23;20202;-85
2022/12/27 01:12:22;;;;;;;1.27;1.10;;;;;;;7.73;68.26;100612.28;6120368;23;20174;-86
2022/12/27 01:14:48;;;;;;;1.67;1.20;;;;;;;7.71;68.29;100610.63;6091029;23;20507;-85
2022/12/27 01:17:13;;;;;;;1.87;1.20;;;;;;;7.67;68.40;100611.63;6120828;23;20269;-85
2022/12/27 01:19:39;;;;;;;2.13;1.60;;;;;;;7.63;68.67;100610.91;6134043;23;20165;-85
2022/12/27 01:22:05;;;;;;;4.50;1.53;;;;;;;7.60;68.77;100610.16;6140687;23;20172;-84
2022/12/27 01:24:31;;;;;;;2.45;2.15;;;;;;;7.54;68.66;100614.69;6140527;23;20516;-86
2022/12/27 01:26:57;;;;;;;2.88;1.40;;;;;;;7.48;68.63;100616.66;6141656;23;20189;-85
2022/12/27 01:29:22;;;;;;;4.00;1.43;;;;;;;7.41;69.12;100620.41;6138736;23;20203;-85
2022/12/27 01:31:48;;;;;;;2.13;1.23;;;;;;;7.32;69.12;100622.44;6140591;23;20168;-85
2022/12/27 01:34:15;;;;;;;2.75;1.30;;;;;;;7.27;69.47;100623.50;6141072;23;20156;-85
2022/12/27 01:36:41;;;;;;;1.35;1.25;;;;;;;7.20;69.58;100622.84;6120162;23;20492;-85
2022/12/27 01:39:09;;;;;;;2.25;1.52;;;;;;;7.16;69.71;100626.47;6119001;23;20476;-85
2022/12/27 01:44:38;;;;;;;2.28;1.70;;;;;;;6.95;70.08;100624.56;6116659;23;20208;-85
2022/12/27 01:47:19;;;;;;;2.72;1.55;;;;;;;6.82;70.13;100635.38;6115078;23;20197;-85
2022/12/27 01:50:09;;;;;;;2.92;1.60;;;;;;;6.78;70.46;100622.50;6119783;23;20196;-85
2022/12/27 01:52:45;;;;;;;2.72;1.10;;;;;;;6.75;70.35;100631.28;6099203;23;20165;-85
2022/12/27 01:55:44;;;;;;;3.33;1.67;;;;;;;6.70;70.38;100633.19;6115180;23;20169;-85
2022/12/27 01:58:28;;;;;;;2.17;1.30;;;;;;;6.65;70.60;100640.28;6119468;23;20356;-85
2022/12/27 02:00:54;;;;;;;3.35;1.27;;;;;;;6.62;70.43;100649.06;6117205;23;20169;-85
2022/12/27 02:03:34;;;;;;;3.83;1.55;;;;;;;6.62;70.69;100656.06;6114481;23;20195;-85
2022/12/27 02:06:02;;;;;;;1.27;1.17;;;;;;;6.58;70.60;100654.44;6116619;23;20250;-86
2022/12/27 02:08:42;;;;;;;5.40;1.92;;;;;;;6.49;70.21;100660.78;6119091;23;20262;-85
2022/12/27 02:11:09;;;;;;;4.85;1.40;;;;;;;6.42;70.54;100662.69;6115426;23;20180;-85
2022/12/27 02:13:38;;;;;;;2.67;1.58;;;;;;;6.39;70.68;100669.78;6118872;23;20182;-85
2022/12/27 02:16:16;;;;;;;2.38;1.30;;;;;;;6.37;70.84;100671.56;6118412;23;20179;-85
2022/12/27 02:18:44;;;;;;;2.60;1.75;;;;;;;6.37;70.79;100672.44;6117953;23;20619;-85
2022/12/27 02:21:42;;;;;;;2.35;1.70;;;;;;;6.39;70.88;100675.84;6114563;23;20186;-85
2022/12/27 02:24:22;;;;;;;2.90;1.67;;;;;;;6.35;71.21;100678.63;6118046;23;20196;-85
2022/12/27 02:26:52;;;;;;;1.65;1.50;;;;;;;6.31;70.72;100698.69;6116562;23;20207;-85
2022/12/27 02:29:28;;;;;;;3.45;1.35;;;;;;;6.25;71.11;100701.50;6090308;23;20260;-85
2022/12/27 02:32:02;;;;;;;2.08;1.50;;;;;;;6.21;71.47;100702.47;6116055;23;20171;-85
2022/12/27 02:34:53;;;;;;;3.33;1.52;;;;;;;6.17;70.85;100711.28;6118452;23;20205;-85
2022/12/27 02:37:20;;;;;;;1.50;1.25;;;;;;;6.11;71.51;100699.28;6115049;23;20201;-85
2022/12/27 02:39:48;;;;;;;2.95;1.92;;;;;;;6.07;71.47;100695.03;6116412;23;20646;-84
2022/12/27 02:54:00;;;;;;;2.10;0.95;;;;;;;5.41;72.29;100683.72;6117543;23;20183;-85
2022/12/27 03:03:22;;;;;;;1.85;1.23;;;;;;;5.17;73.00;100694.72;6119196;23;20618;-86
2022/12/27 03:18:19;;;;;;;1.35;1.20;;;;;;;5.23;72.79;100694.56;6119172;23;20533;-85
2022/12/27 03:26:18;;;;;;;2.42;1.10;;;;;;;4.85;73.71;100704.13;6119960;23;20206;-85
2022/12/27 03:34:37;;;;;;;2.35;1.70;;;;;;;4.84;73.83;100702.44;6118893;23;20208;-85
2022/12/27 03:40:00;;;;;;;7.20;1.38;;;;;;;4.74;74.01;100725.19;6120254;23;20175;-85
2022/12/27 03:45:14;;;;;;;2.25;1.40;;;;;;;4.70;74.07;100730.50;6125276;23;20199;-86
2022/12/27 03:47:52;;;;;;;1.30;1.03;;;;;;;4.67;74.15;100726.22;6127686;23;20207;-84
2022/12/27 03:50:33;;;;;;;5.75;1.45;;;;;;;4.65;74.24;100731.47;6086799;23;20360;-82
2022/12/27 03:53:09;;;;;;;4.20;1.95;;;;;;;4.67;74.16;100728.81;6090921;23;20174;-82
2022/12/27 03:55:36;;;;;;;1.73;1.30;;;;;;;4.72;74.23;100724.38;6090066;23;20169;-82
2022/12/27 03:58:02;;;;;;;2.63;1.45;;;;;;;4.69;74.11;100726.19;6092980;23;20192;-82
2022/12/27 04:00:27;;;;;;;2.00;1.60;;;;;;;4.61;74.15;100718.53;6092955;23;20506;-81
2022/12/27 04:02:52;;;;;;;2.90;1.40;;;;;;;4.56;74.19;100720.38;6093833;23;20182;-82
2022/12/27 04:05:18;;;;;;;2.73;1.67;;;;;;;4.56;74.67;100710.81;6094772;23;20460;-82
2022/12/27 04:35:02;;;;;;;2.83;1.50;;;;;;;4.61;74.47;100724.59;6065648;23;20173;-82
2022/12/27 04:37:27;;;;;;;2.77;1.40;;;;;;;4.66;74.61;100725.38;6039183;23;20220;-82
2022/12/27 04:56:22;;;;;;;5.60;2.50;;;;;;;4.49;74.51;100729.22;6067404;23;20172;-82
2022/12/27 05:04:16;;;;;;;3.17;2.05;;;;;;;4.56;74.60;100713.44;6092998;23;20199;-82
2022/12/27 05:06:41;;;;;;;2.77;2.07;;;;;;;4.57;74.63;100724.72;6094447;23;20208;-82
2022/12/27 05:14:34;;;;;;;1.85;1.75;;;;;;;4.52;74.51;100732.59;6093463;23;20180;-82
2022/12/27 05:17:00;;;;;;;2.00;1.53;;;;;;;4.51;74.65;100736.13;6093027;23;20544;-82
2022/12/27 05:19:25;;;;;;;2.40;1.20;;;;;;;4.52;74.80;100740.41;6094727;23;20223;-82
2022/12/27 05:27:18;;;;;;;2.95;1.10;;;;;;;4.53;74.55;100739.50;6094136;23;20568;-82
2022/12/27 05:29:44;;;;;;;5.30;1.67;;;;;;;4.49;74.67;100739.63;6093956;23;20223;-82
2022/12/27 05:32:10;;;;;;;7.05;1.88;;;;;;;4.45;74.66;100733.63;6094964;23;20180;-82
2022/12/27 05:34:35;;;;;;;3.10;2.30;;;;;;;4.41;74.89;100730.22;6091691;23;20499;-82
2022/12/27 05:37:00;;;;;;;2.37;1.40;;;;;;;4.36;75.16;100726.88;6093344;23;20195;-82
2022/12/27 05:39:26;;;;;;;1.40;1.30;;;;;;;4.31;75.06;100727.84;6090705;23;20391;-82
2022/12/27 05:41:51;;;;;;;6.00;2.03;;;;;;;4.25;75.03;100725.38;6092310;23;20654;-82
2022/12/27 05:44:17;;;;;;;2.50;1.33;;;;;;;4.19;75.15;100735.00;6091357;23;20176;-82
2022/12/27 05:46:42;;;;;;;1.40;1.30;;;;;;;4.12;75.39;100736.00;6092777;23;20232;-82
2022/12/27 05:49:07;;;;;;;2.17;1.30;;;;;;;4.04;75.34;100745.69;6091000;23;20216;-82
2022/12/27 05:51:33;;;;;;;2.37;1.63;;;;;;;4.01;75.19;100745.75;6093382;23;20190;-82
2022/12/27 05:53:58;;;;;;;2.60;1.43;;;;;;;4.01;75.40;100753.53;6093562;23;20196;-82
2022/12/27 05:56:24;;;;;;;3.07;1.70;;;;;;;4.03;75.39;100746.59;6093511;23;20178;-82
2022/12/27 05:58:52;;;;;;;2.13;1.40;;;;;;;4.08;75.22;100742.16;6093096;23;20608;-82
2022/12/27 06:01:17;;;;;;;1.67;1.45;;;;;;;4.11;75.17;100743.84;6092756;23;20207;-82
2022/12/27 06:03:44;;;;;;;2.00;1.80;;;;;;;4.14;75.21;100743.78;6094028;23;20444;-82
2022/12/27 06:06:10;;;;;;;2.88;2.05;;;;;;;4.17;75.36;100748.91;6093932;23;20524;-82
2022/12/27 06:08:36;;;;;;;2.63;1.48;;;;;;;4.19;75.08;100745.41;6091592;23;20192;-82
2022/12/27 06:11:09;;;;;;;1.50;1.40;;;;;;;4.22;75.02;100747.94;6094407;23;20188;-82
2022/12/27 06:13:35;;;;;;;2.05;1.85;;;;;;;4.26;74.92;100748.72;6094851;23;20545;-83
2022/12/27 06:16:02;;;;;;;1.88;1.58;;;;;;;4.29;74.88;100750.41;6094335;23;20259;-82
2022/12/27 06:18:29;;;;;;;2.20;1.42;;;;;;;4.27;74.89;100754.81;6092626;23;20662;-81
2022/12/27 06:21:00;;;;;;;2.10;1.50;;;;;;;4.21;74.86;100751.44;6091379;23;20487;-82
2022/12/27 06:23:26;;;;;;;2.55;1.60;;;;;;;4.19;74.98;100749.75;6129546;23;20311;-82
2022/12/27 06:25:51;;;;;;;2.27;2.03;;;;;;;4.15;75.17;100759.34;6152723;23;20203;-82
2022/12/27 06:28:17;;;;;;;4.03;3.10;;;;;;;4.13;75.32;100761.13;6124482;23;20198;-82
2022/12/27 06:30:42;;;;;;;3.47;2.67;;;;;;;4.14;75.51;100762.84;6150620;23;20574;-82
2022/12/27 06:33:07;;;;;;;2.90;2.30;;;;;;;4.15;75.60;100769.75;6153336;23;20174;-82
2022/12/27 06:35:33;;;;;;;2.88;2.63;;;;;;;4.18;75.63;100768.81;6152637;23;20171;-82
2022/12/27 06:37:59;;;;;;;5.13;2.63;;;;;;;4.21;75.52;100769.66;6153352;23;20521;-82
2022/12/27 06:40:24;;;;;;;2.00;1.67;;;;;;;4.23;75.41;100769.59;6153663;23;20170;-82
2022/12/27 06:42:50;;;;;;;3.50;2.30;;;;;;;4.22;75.33;100773.94;6152300;23;20173;-82
2022/12/27 06:45:15;;;;;;;2.20;2.00;;;;;;;4.22;75.19;100773.09;6153055;23;20226;-82
2022/12/27 06:47:40;;;;;;;2.50;1.50;;;;;;;4.21;75.26;100779.16;6152738;23;20175;-83
2022/12/27 06:50:06;;;;;;;2.07;1.60;;;;;;;4.18;75.26;100774.03;6152269;23;20237;-82
2022/12/27 06:52:31;;;;;;;2.87;2.00;;;;;;;4.10;75.42;100768.97;6153531;23;20182;-82
2022/12/27 06:54:57;;;;;;;5.77;1.97;;;;;;;4.08;75.53;100777.69;6152869;23;20175;-82
2022/12/27 06:57:22;;;;;;;3.70;2.77;;;;;;;4.06;75.66;100780.31;6152493;23;20638;-81
2022/12/27 06:59:47;;;;;;;3.07;1.90;;;;;;;4.08;75.54;100786.34;6126951;23;20649;-81
2022/12/27 07:02:13;;;;;;;4.23;3.30;;;;;;;4.05;75.58;100782.94;6152678;23;20173;-81
2022/12/27 07:04:38;;;;;;;4.80;2.90;;;;;;;4.03;76.03;100779.53;6151651;23;20534;-82
2022/12/27 07:07:04;;;;;;;3.60;2.40;;;;;;;4.03;76.24;100782.97;6153975;23;20488;-81
2022/12/27 07:09:29;;;;;;;4.43;2.50;;;;;;;4.03;76.26;100785.59;6152441;23;20198;-81
2022/12/27 07:11:55;;;;;;;3.60;3.20;;;;;;;4.00;76.28;100783.03;6152823;23;20210;-81
2022/12/27 07:14:20;;;;;;;4.00;3.20;;;;;;;3.95;76.02;100785.72;6152537;23;20481;-81
2022/12/27 07:16:48;;;;;;;3.37;2.90;;;;;;;3.93;76.42;100791.81;6152208;23;20185;-82
2022/12/27 07:19:13;;;;;;;3.60;2.80;;;;;;;3.95;76.07;100790.91;6151124;23;20210;-82
2022/12/27 07:21:39;;;;;;;2.50;2.28;;;;;;;3.97;76.42;100788.28;6151578;23;20969;-82
2022/12/27 07:24:05;;;;;;;3.20;1.60;;;;;;;3.97;76.35;100796.09;6152081;23;20186;-82
2022/12/27 07:26:30;;;;;;;3.93;2.50;;;;;;;4.01;76.29;100802.94;6150716;23;20229;-82
2022/12/27 07:28:59;;;;;;;7.90;3.43;;;;;;;4.07;76.13;100804.56;6152460;23;20214;-82
2022/12/27 07:31:28;;;;;;;5.40;3.45;;;;;;;4.12;75.87;100802.75;6151163;23;20171;-82
2022/12/27 07:33:54;;;;;;;11.30;5.90;;;;;;;4.16;75.82;100807.03;6153195;23;20174;-82
2022/12/27 07:36:33;;;;;;;11.70;6.93;;;;;;;4.16;75.91;100807.88;6154361;23;20171;-82
2022/12/27 07:38:58;;;;;;;8.25;6.00;;;;;;;4.16;75.76;100804.44;6154539;23;20188;-82
2022/12/27 07:41:24;;;;;;;5.23;3.73;;;;;;;4.17;75.80;100814.78;6154326;23;20179;-82
2022/12/27 07:43:51;;;;;;;6.30;3.75;;;;;;;4.15;75.81;100819.16;6155610;23;20202;-82
2022/12/27 07:46:19;;;;;;;5.67;4.47;;;;;;;4.13;75.74;100823.53;6155691;23;20198;-82
2022/12/27 07:48:46;;;;;;;4.55;4.10;;;;;;;4.14;75.96;100824.38;6155799;23;20214;-82
2022/12/27 07:51:13;;;;;;;3.42;2.58;;;;;;;4.19;75.59;100826.03;6155231;23;20186;-82
2022/12/27 07:53:40;;;;;;;3.70;2.58;;;;;;;4.21;75.44;100826.84;6129011;23;20214;-82
2022/12/27 07:56:13;;;;;;;4.70;2.80;;;;;;;4.24;75.67;100827.66;6155384;23;20174;-82
2022/12/27 07:58:44;;;;;;;7.90;3.78;;;;;;;4.27;75.58;100825.03;6129293;23;20445;-82
2022/12/27 08:01:11;;;;;;;4.75;3.28;;;;;;;4.33;75.53;100830.97;6155721;23;20173;-82
2022/12/27 08:03:38;;;;;;;5.97;4.10;;;;;;;4.38;75.29;100823.94;6154986;23;20433;-83
2022/12/27 08:06:04;;;;;;;3.67;3.40;;;;;;;4.45;75.37;100819.47;6151949;23;20430;-83
2022/12/27 08:08:41;;;;;;;4.97;4.18;;;;;;;4.51;75.21;100819.38;6152502;23;20210;-83
2022/12/27 08:11:07;;;;;;;4.00;3.35;;;;;;;4.56;75.01;100827.06;6126189;23;20183;-83
2022/12/27 08:13:33;;;;;;;5.43;3.30;;;;;;;4.58;75.20;100818.34;6153291;23;20571;-83
2022/12/27 08:15:58;;;;;;;4.80;4.13;;;;;;;4.64;75.15;100820.84;6153004;23;20734;-83
2022/12/27 08:18:24;;;;;;;7.13;4.10;;;;;;;4.73;75.15;100819.81;6125551;23;20409;-83
2022/12/27 08:20:50;;;;;;;4.63;3.73;;;;;;;4.80;74.79;100810.09;6152456;23;20198;-82
2022/12/27 08:23:15;;;;;;;6.22;3.85;;;;;;;4.87;74.63;100815.16;6149223;23;20171;-83
2022/12/27 08:25:41;;;;;;;3.47;2.40;;;;;;;4.96;74.60;100826.28;6152294;23;20183;-83
2022/12/27 08:28:10;;;;;;;3.83;3.43;;;;;;;5.02;74.33;100836.53;6153184;23;20278;-83
2022/12/27 08:30:37;;;;;;;4.93;3.28;;;;;;;5.06;74.04;100828.66;6154331;23;20183;-83
2022/12/27 08:33:03;;;;;;;9.07;4.85;;;;;;;5.12;74.01;100824.19;6152156;23;20179;-83
2022/12/27 08:35:29;;;;;;;7.43;3.90;;;;;;;5.18;73.68;100821.44;6152436;23;20221;-83
2022/12/27 08:37:55;;;;;;;5.40;3.17;;;;;;;5.24;73.78;100818.75;6152241;23;20173;-83
2022/12/27 08:40:20;;;;;;;5.63;3.50;;;;;;;5.31;73.83;100822.91;6151847;23;20253;-83
2022/12/27 08:42:46;;;;;;;2.67;2.47;;;;;;;5.35;73.95;100819.34;6152179;23;20417;-83
2022/12/27 08:45:11;;;;;;;5.17;3.60;;;;;;;5.40;73.48;100814.00;6150819;23;20622;-82
2022/12/27 08:47:37;;;;;;;3.27;2.77;;;;;;;5.48;73.25;100825.13;6149463;23;20278;-83
2022/12/27 08:50:06;;;;;;;3.40;3.10;;;;;;;5.58;73.35;100815.34;6150810;23;20469;-82
2022/12/27 08:52:32;;;;;;;5.53;4.20;;;;;;;5.70;72.87;100815.91;6151237;23;20187;-82
2022/12/27 08:54:57;;;;;;;8.38;4.43;;;;;;;5.86;72.91;100818.13;6150750;23;20510;-83
2022/12/27 08:57:23;;;;;;;5.80;4.00;;;;;;;6.14;72.60;100821.78;6149614;23;20175;-83
2022/12/27 08:59:48;;;;;;;10.90;7.07;;;;;;;6.61;71.99;100821.41;6146911;23;20278;-83
2022/12/27 09:02:13;;;;;;;7.80;5.93;;;;;;;7.11;71.13;100816.50;6146726;23;20170;-83
2022/12/27 09:04:39;;;;;;;8.40;6.40;;;;;;;7.61;69.86;100815.81;6144772;23;20397;-83
2022/12/27 09:07:04;;;;;;;7.00;4.70;;;;;;;8.06;68.72;100805.59;6148925;23;20522;-83
2022/12/27 09:09:30;;;;;;;7.73;5.57;;;;;;;8.47;67.57;100803.31;6150643;23;20194;-83
2022/12/27 09:11:55;;;;;;;6.73;3.90;;;;;;;8.82;66.69;100806.44;6151518;23;20222;-83
2022/12/27 09:14:21;;;;;;;6.37;2.50;;;;;;;8.99;65.78;100796.19;6123093;23;20183;-83
2022/12/27 09:16:48;;;;;;;5.90;4.72;;;;;;;9.13;65.64;100808.75;6149850;23;20178;-83
2022/12/27 09:19:13;;;;;;;8.70;4.20;;;;;;;9.43;64.80;100811.94;6146756;23;20195;-83
2022/12/27 09:21:40;;;;;;;3.97;3.63;;;;;;;9.67;64.00;100804.88;6120984;23;20183;-85
2022/12/27 09:24:09;;;;;;;6.78;4.55;;;;;;;9.66;63.85;100805.75;6146436;23;20245;-85
2022/12/27 09:26:35;;;;;;;8.77;4.90;;;;;;;9.48;63.87;100809.16;6119839;23;20682;-85
2022/12/27 09:29:00;;;;;;;3.80;3.40;;;;;;;9.21;64.06;100808.47;6146437;23;20277;-85
2022/12/27 09:31:26;;;;;;;3.53;3.23;;;;;;;9.03;64.41;100813.50;6148152;23;20194;-85
2022/12/27 09:33:52;;;;;;;4.13;3.10;;;;;;;8.90;64.87;100807.00;6147617;23;20194;-85
2022/12/27 09:36:21;;;;;;;5.18;3.25;;;;;;;8.78;65.03;100810.94;6147615;23;20873;-84
2022/12/27 09:38:47;;;;;;;3.58;3.28;;;;;;;8.74;65.37;100814.56;6148096;23;20199;-84
2022/12/27 09:41:31;;;;;;;4.25;3.50;;;;;;;8.76;65.24;100814.53;6147868;23;20934;-84
2022/12/27 09:44:17;;;;;;;4.30;3.10;;;;;;;8.70;65.37;100823.47;6147197;23;20182;-84
2022/12/27 09:47:02;;;;;;;3.58;3.05;;;;;;;8.68;65.61;100821.81;6148150;23;20753;-85
2022/12/27 09:49:49;;;;;;;4.88;2.90;;;;;;;8.67;65.61;100823.56;6121689;23;20544;-85
2022/12/27 09:52:24;;;;;;;3.10;2.55;;;;;;;8.68;65.50;100822.66;6147032;23;20613;-85
2022/12/27 09:55:14;;;;;;;5.25;2.90;;;;;;;8.75;65.42;100816.28;6148356;23;20683;-85
2022/12/27 09:57:42;;;;;;;3.25;2.70;;;;;;;8.86;65.01;100816.75;6148671;23;20187;-85
2022/12/27 10:00:19;;;;;;;3.75;3.00;;;;;;;8.94;64.61;100813.84;6146920;23;20178;-85
2022/12/27 10:02:47;;;;;;;8.00;2.72;;;;;;;9.04;64.61;100812.56;6149123;23;20178;-85
2022/12/27 10:05:21;;;;;;;7.03;4.53;;;;;;;9.11;64.25;100802.72;6147640;23;20179;-86
2022/12/27 10:07:57;;;;;;;6.78;3.13;;;;;;;9.27;63.67;100805.59;6148032;23;20201;-87
2022/12/27 10:10:52;;;;;;;5.97;3.00;;;;;;;9.42;63.07;100802.34;6132183;23;20218;-87
2022/12/27 10:13:18;;;;;;;3.35;3.05;;;;;;;9.71;62.17;100802.97;6145836;23;20179;-86
2022/12/27 10:16:18;;;;;;;7.73;3.50;;;;;;;10.01;61.51;100805.22;6147336;23;20181;-86
2022/12/27 10:18:58;;;;;;;5.07;3.70;;;;;;;10.24;60.89;100797.25;6095112;23;20213;-87
2022/12/27 10:21:26;;;;;;;3.25;2.70;;;;;;;10.45;60.53;100794.59;6148329;23;20645;-87
2022/12/27 10:23:57;;;;;;;7.03;4.35;;;;;;;10.50;60.19;100790.00;6147254;23;20186;-87
2022/12/27 10:26:23;;;;;;;5.80;4.00;;;;;;;10.38;60.73;100787.00;6121547;23;20671;-87
2022/12/27 10:29:02;;;;;;;5.03;3.95;;;;;;;10.27;61.23;100788.38;6147751;23;20218;-88
2022/12/27 10:31:30;;;;;;;7.97;3.40;;;;;;;10.24;61.57;100789.34;6121781;23;20190;-87
2022/12/27 10:33:56;;;;;;;4.00;3.40;;;;;;;10.22;61.72;100788.56;6147937;23;20418;-87
2022/12/27 10:36:26;;;;;;;8.30;5.47;;;;;;;10.15;62.07;100779.22;6149174;23;20194;-87
2022/12/27 10:38:53;;;;;;;9.57;4.88;;;;;;;10.07;62.44;100783.97;6122474;23;20477;-87
2022/12/27 10:41:37;;;;;;;5.78;5.22;;;;;;;9.92;62.78;100778.44;6146565;23;20499;-87
2022/12/27 10:44:11;;;;;;;4.97;3.88;;;;;;;9.85;63.08;100777.00;6148167;23;20244;-88
2022/12/27 10:46:37;;;;;;;5.60;4.95;;;;;;;9.80;63.56;100775.47;6149633;23;20225;-87
2022/12/27 10:49:07;;;;;;;5.85;4.80;;;;;;;9.73;64.12;100775.75;6149246;23;20562;-87
2022/12/27 10:51:36;;;;;;;6.13;4.57;;;;;;;9.74;64.01;100766.94;6148794;23;20191;-87
2022/12/27 10:54:04;;;;;;;9.38;4.22;;;;;;;9.79;64.36;100774.63;6148694;23;20163;-87
2022/12/27 10:56:38;;;;;;;5.68;3.67;;;;;;;9.82;64.38;100771.88;6147750;23;20210;-87
2022/12/27 10:59:09;;;;;;;5.50;3.67;;;;;;;9.89;64.55;100783.84;6147276;23;20221;-87
2022/12/27 11:01:35;;;;;;;7.75;4.13;;;;;;;9.95;64.47;100787.97;6119503;23;20685;-87
2022/12/27 11:04:21;;;;;;;5.53;3.70;;;;;;;10.02;64.70;100783.31;6148407;23;20472;-87
2022/12/27 11:07:07;;;;;;;6.68;2.92;;;;;;;10.08;64.43;100780.44;6145778;23;20202;-87
2022/12/27 11:09:42;;;;;;;4.35;2.50;;;;;;;10.11;64.56;100778.53;6117550;23;20579;-87
2022/12/27 11:12:24;;;;;;;5.20;3.05;;;;;;;10.16;64.40;100780.97;6148331;23;20182;-87
2022/12/27 11:14:53;;;;;;;4.50;2.63;;;;;;;10.18;64.46;100779.97;6146417;23;20185;-87
2022/12/27 11:17:24;;;;;;;3.67;3.00;;;;;;;10.25;64.06;100783.19;6148122;23;20174;-87
2022/12/27 11:19:50;;;;;;;4.13;2.40;;;;;;;10.34;64.19;100781.94;6146845;23;20563;-87
2022/12/27 11:22:16;;;;;;;3.27;2.30;;;;;;;10.41;63.77;100775.50;6148696;23;20633;-87
2022/12/27 11:24:47;;;;;;;1.70;1.60;;;;;;;10.44;63.61;100778.00;6148641;23;20418;-87
2022/12/27 11:27:24;;;;;;;1.95;1.38;;;;;;;10.43;62.71;100778.94;6146751;23;20473;-87
2022/12/27 11:29:52;;;;;;;4.40;1.75;;;;;;;10.38;62.24;100776.50;6148693;23;20692;-87
2022/12/27 11:32:22;;;;;;;2.78;1.73;;;;;;;10.36;62.21;100766.97;6121414;23;20179;-87
2022/12/27 11:34:50;;;;;;;3.08;2.33;;;;;;;10.38;61.90;100773.88;6145675;23;20425;-87
2022/12/27 11:37:19;;;;;;;3.28;1.30;;;;;;;10.39;60.77;100767.69;6148190;23;20178;-87
2022/12/27 11:39:50;;;;;;;1.77;1.30;;;;;;;10.46;60.12;100767.44;6147689;23;20249;-87
2022/12/27 11:42:18;;;;;;;1.52;1.00;;;;;;;10.56;59.42;100772.22;6117052;23;20215;-87
2022/12/27 11:45:03;;;;;;;1.80;1.00;;;;;;;10.65;58.44;100763.06;6147073;23;20608;-87
2022/12/27 11:47:48;;;;;;;4.30;1.73;;;;;;;10.74;58.09;100762.63;6145917;23;20234;-87
2022/12/27 11:50:26;;;;;;;11.88;6.47;;;;;;;10.78;57.67;100744.97;6145887;23;20289;-86
2022/12/27 11:53:03;;;;;;;10.77;7.00;;;;;;;10.83;57.33;100745.59;6145432;23;20179;-86
2022/12/27 11:55:56;;;;;;;8.02;6.25;;;;;;;10.84;56.66;100744.66;6145874;23;20188;-85
2022/12/27 11:58:54;;;;;;;7.60;1.70;;;;;;;10.88;56.71;100737.47;6147483;23;20540;-85
2022/12/27 12:01:28;;;;;;;3.25;1.85;;;;;;;10.91;56.76;100734.69;6146545;23;20194;-85
2022/12/27 12:04:17;;;;;;;5.00;3.80;;;;;;;10.91;56.44;100725.06;6146724;23;20174;-85
2022/12/27 12:07:05;;;;;;;2.47;2.28;;;;;;;10.91;56.33;100722.44;6144968;23;20213;-85
2022/12/27 12:09:44;;;;;;;3.85;2.65;;;;;;;10.95;56.44;100717.88;6145338;23;20195;-84
2022/12/27 12:12:31;;;;;;;5.18;2.20;;;;;;;10.96;56.57;100716.94;6147506;23;20281;-85
2022/12/27 12:15:21;;;;;;;2.00;1.40;;;;;;;11.02;56.58;100721.94;6147016;23;20227;-85
2022/12/27 12:17:57;;;;;;;1.70;1.60;;;;;;;11.06;56.48;100723.47;6146958;23;20258;-85
2022/12/27 12:20:58;;;;;;;1.55;1.10;;;;;;;11.08;56.09;100722.47;6144907;23;20688;-85
2022/12/27 12:23:47;;;;;;;3.17;1.40;;;;;;;11.05;56.16;100727.88;6147711;23;20911;-86
2022/12/27 12:26:19;;;;;;;4.85;1.33;;;;;;;11.05;56.42;100724.41;6118476;23;20207;-84
2022/12/27 12:29:13;;;;;;;7.22;1.30;;;;;;;11.04;56.24;100727.94;6148385;23;20575;-85
2022/12/27 12:31:42;;;;;;;2.00;1.50;;;;;;;11.03;56.34;100724.47;6119051;23;20538;-85
2022/12/27 12:34:32;;;;;;;1.38;1.25;;;;;;;11.05;56.16;100727.03;6119999;23;20166;-85
2022/12/27 12:37:15;;;;;;;3.92;1.70;;;;;;;11.03;55.98;100721.84;6150034;23;20257;-85
2022/12/27 12:40:13;;;;;;;5.45;1.20;;;;;;;11.04;55.76;100720.94;6145651;23;20610;-85
2022/12/27 12:42:50;;;;;;;2.25;1.10;;;;;;;11.01;55.81;100717.56;6149551;23;20203;-85
2022/12/27 12:45:30;;;;;;;2.75;1.30;;;;;;;10.99;55.94;100716.78;6146205;23;20286;-85
2022/12/27 12:48:36;;;;;;;1.67;1.20;;;;;;;10.94;56.01;100714.41;6148062;23;20197;-85
2022/12/27 12:51:29;;;;;;;2.33;1.30;;;;;;;10.92;56.19;100710.13;6148626;23;20240;-86
2022/12/27 12:53:57;;;;;;;1.40;0.90;;;;;;;10.92;56.56;100708.34;6147566;23;20236;-85
2022/12/27 12:56:31;;;;;;;3.05;1.10;;;;;;;10.95;56.64;100704.72;6148779;23;20178;-85
2022/12/27 12:59:26;;;;;;;1.90;1.10;;;;;;;10.99;56.50;100709.78;6147242;23;20201;-85
2022/12/27 13:02:10;;;;;;;4.60;1.30;;;;;;;11.03;56.60;100710.47;6149083;23;20207;-85
2022/12/27 13:05:16;;;;;;;2.03;1.83;;;;;;;11.04;56.92;100712.16;6146115;23;20437;-85
2022/12/27 13:07:57;;;;;;;2.17;1.15;;;;;;;11.03;57.08;100718.38;6103307;23;20290;-85
2022/12/27 13:10:48;;;;;;;3.45;0.90;;;;;;;11.02;57.28;100719.31;6145782;23;20190;-85
2022/12/27 13:13:28;;;;;;;3.50;1.10;;;;;;;11.03;57.41;100715.72;6146361;23;20182;-85
2022/12/27 13:16:20;;;;;;;2.05;1.00;;;;;;;11.06;57.28;100707.69;6146283;23;20249;-86
2022/12/27 13:18:57;;;;;;;1.77;1.20;;;;;;;11.07;57.34;100707.63;6120325;23;20437;-85
2022/12/27 13:21:48;;;;;;;5.60;1.20;;;;;;;11.08;57.12;100708.47;6151577;23;20185;-85
2022/12/27 13:24:33;;;;;;;1.45;1.20;;;;;;;11.08;57.15;100703.22;6148710;23;20199;-85
2022/12/27 13:27:14;;;;;;;2.92;1.08;;;;;;;11.10;57.11;100705.75;6147357;23;20209;-85
2022/12/27 13:29:54;;;;;;;3.45;1.15;;;;;;;11.12;57.08;100701.28;6142718;23;20689;-85
2022/12/27 13:32:55;;;;;;;3.88;1.80;;;;;;;11.12;56.82;100702.13;6147191;23;20231;-85
2022/12/27 13:35:51;;;;;;;2.75;1.50;;;;;;;11.13;56.52;100701.22;6145389;23;20437;-85
2022/12/27 13:38:23;;;;;;;2.22;1.40;;;;;;;11.09;56.68;100694.41;6149210;23;20199;-85
2022/12/27 13:41:16;;;;;;;1.80;1.00;;;;;;;11.07;56.42;100705.00;6147561;23;20191;-86
2022/12/27 13:43:47;;;;;;;1.35;1.00;;;;;;;11.05;56.59;100693.69;6149863;23;20175;-85